createdAt,value
2022-09-23T00:00:40.044Z,3.60
2022-09-23T00:03:07.984Z,2.70
2022-09-23T00:05:36.011Z,3.63
2022-09-23T00:08:03.928Z,8.73
2022-09-23T00:10:32.217Z,3.15
2022-09-23T00:13:00.233Z,3.67
2022-09-23T00:15:30.062Z,3.85
2022-09-23T00:17:59.294Z,4.13
2022-09-23T00:20:29.532Z,3.20
2022-09-23T00:22:57.802Z,3.10
2022-09-23T00:25:26.005Z,4.13
2022-09-23T00:27:53.920Z,3.00
2022-09-23T00:30:23.592Z,2.92
2022-09-23T00:32:52.904Z,4.65
2022-09-23T00:35:22.339Z,3.75
2022-09-23T00:37:50.307Z,3.42
2022-09-23T00:40:18.401Z,3.00
2022-09-23T00:42:49.812Z,3.08
2022-09-23T00:45:20.797Z,3.35
2022-09-23T00:47:49.692Z,3.30
2022-09-23T00:50:24.419Z,2.70
2022-09-23T00:55:22.171Z,2.40
2022-09-23T00:57:50.061Z,3.15
2022-09-23T01:00:18.015Z,2.40
2022-09-23T01:02:46.695Z,2.75
2022-09-23T01:05:14.752Z,2.30
2022-09-23T01:07:44.088Z,2.10
2022-09-23T01:10:13.525Z,2.40
2022-09-23T01:12:53.232Z,3.83
2022-09-23T01:15:23.078Z,2.47
2022-09-23T01:17:53.248Z,2.33
2022-09-23T01:20:32.814Z,2.67
2022-09-23T01:23:09.077Z,2.75
2022-09-23T01:25:47.215Z,2.53
2022-09-23T01:28:37.876Z,2.50
2022-09-23T01:31:07.781Z,2.15
2022-09-23T01:33:39.457Z,2.65
2022-09-23T01:36:11.780Z,2.75
2022-09-23T01:38:43.254Z,2.22
2022-09-23T01:41:17.676Z,2.22
2022-09-23T01:43:49.067Z,1.85
2022-09-23T01:46:19.897Z,2.15
2022-09-23T01:48:51.145Z,1.95
2022-09-23T01:51:21.874Z,2.33
2022-09-23T01:53:52.201Z,2.42
2022-09-23T01:56:22.215Z,2.42
2022-09-23T01:58:52.211Z,4.40
2022-09-23T02:01:23.901Z,2.33
2022-09-23T02:03:53.251Z,2.15
2022-09-23T02:06:22.941Z,2.67
2022-09-23T02:08:53.271Z,3.20
2022-09-23T02:11:21.512Z,2.67
2022-09-23T02:13:52.664Z,2.17
2022-09-23T02:16:26.155Z,2.10
2022-09-23T02:18:56.115Z,5.38
2022-09-23T02:21:25.134Z,2.40
2022-09-23T02:23:54.060Z,1.80
2022-09-23T02:26:23.325Z,2.17
2022-09-23T02:28:56.005Z,1.95
2022-09-23T02:31:30.906Z,2.10
2022-09-23T02:33:59.343Z,2.25
2022-09-23T02:36:29.668Z,2.42
2022-09-23T02:38:59.635Z,3.33
2022-09-23T02:41:29.603Z,1.95
2022-09-23T02:43:59.676Z,3.15
2022-09-23T02:46:30.094Z,2.25
2022-09-23T02:49:00.708Z,1.95
2022-09-23T02:51:29.087Z,1.85
2022-09-23T02:53:57.434Z,1.90
2022-09-23T02:56:25.340Z,1.83
2022-09-23T02:58:54.152Z,2.25
2022-09-23T03:01:26.770Z,1.83
2022-09-23T03:03:57.199Z,1.50
2022-09-23T03:06:28.654Z,1.85
2022-09-23T03:08:59.498Z,4.47
2022-09-23T03:11:27.472Z,1.50
2022-09-23T03:14:05.151Z,1.60
2022-09-23T03:16:35.616Z,2.15
2022-09-23T03:19:13.049Z,2.05
2022-09-23T03:21:43.117Z,2.55
2022-09-23T03:24:11.073Z,1.70
2022-09-23T03:26:39.270Z,1.80
2022-09-23T03:29:09.722Z,1.55
2022-09-23T03:31:37.760Z,1.20
2022-09-23T03:34:09.808Z,2.10
2022-09-23T03:36:53.855Z,1.17
2022-09-23T03:39:27.811Z,1.63
2022-09-23T03:41:57.157Z,2.03
2022-09-23T03:44:25.083Z,1.88
2022-09-23T03:46:52.985Z,1.67
2022-09-23T03:49:27.407Z,1.73
2022-09-23T03:51:55.445Z,2.05
2022-09-23T03:54:23.586Z,1.67
2022-09-23T03:56:51.986Z,1.70
2022-09-23T03:59:20.597Z,1.95
2022-09-23T04:01:48.634Z,3.42
2022-09-23T04:04:16.607Z,1.30
2022-09-23T04:06:45.851Z,1.85
2022-09-23T04:09:13.894Z,1.40
2022-09-23T04:11:41.835Z,1.50
2022-09-23T04:14:12.173Z,1.88
2022-09-23T04:16:40.290Z,1.10
2022-09-23T04:19:11.465Z,1.80
2022-09-23T04:21:39.846Z,2.17
2022-09-23T04:24:09.330Z,2.25
2022-09-23T04:26:38.120Z,1.58
2022-09-23T04:29:06.247Z,1.50
2022-09-23T04:31:34.516Z,1.73
2022-09-23T04:34:02.521Z,1.40
2022-09-23T04:36:30.534Z,1.83
2022-09-23T04:38:59.789Z,1.65
2022-09-23T04:41:29.656Z,4.25
2022-09-23T04:43:58.219Z,1.85
2022-09-23T04:46:26.256Z,1.77
2022-09-23T04:48:54.167Z,3.17
2022-09-23T04:51:23.057Z,1.60
2022-09-23T04:53:51.460Z,2.10
2022-09-23T04:56:20.426Z,2.15
2022-09-23T04:58:49.849Z,1.48
2022-09-23T05:01:18.688Z,2.08
2022-09-23T05:03:47.237Z,0.90
2022-09-23T05:06:15.641Z,2.10
2022-09-23T05:08:43.689Z,3.75
2022-09-23T05:11:11.665Z,1.90
2022-09-23T05:13:49.643Z,1.67
2022-09-23T05:16:17.718Z,1.45
2022-09-23T05:18:45.870Z,1.80
2022-09-23T05:21:14.679Z,1.88
2022-09-23T05:23:42.817Z,1.50
2022-09-23T05:26:12.470Z,1.70
2022-09-23T05:28:40.855Z,2.13
2022-09-23T05:31:17.121Z,2.13
2022-09-23T05:33:48.766Z,1.67
2022-09-23T05:36:17.876Z,1.75
2022-09-23T05:38:48.635Z,1.45
2022-09-23T05:41:17.304Z,7.57
2022-09-23T05:43:45.390Z,1.48
2022-09-23T05:46:15.393Z,3.92
2022-09-23T05:48:43.927Z,2.85
2022-09-23T05:51:14.280Z,2.65
2022-09-23T05:53:44.879Z,2.03
2022-09-23T05:56:14.817Z,2.78
2022-09-23T05:58:42.762Z,4.05
2022-09-23T06:01:12.184Z,3.50
2022-09-23T06:03:41.902Z,2.08
2022-09-23T06:06:14.724Z,1.80
2022-09-23T06:08:42.749Z,3.28
2022-09-23T06:11:11.763Z,3.85
2022-09-23T06:13:39.710Z,2.00
2022-09-23T06:16:08.155Z,2.28
2022-09-23T06:18:36.299Z,4.30
2022-09-23T06:21:05.876Z,2.38
2022-09-23T06:23:36.135Z,1.60
2022-09-23T06:26:05.702Z,2.30
2022-09-23T06:28:34.166Z,2.00
2022-09-23T06:31:03.249Z,1.52
2022-09-23T06:33:36.721Z,2.20
2022-09-23T06:36:07.266Z,1.67
2022-09-23T06:38:35.241Z,2.45
2022-09-23T06:41:03.477Z,2.28
2022-09-23T06:43:31.496Z,1.38
2022-09-23T06:46:01.819Z,3.17
2022-09-23T06:48:29.831Z,3.28
2022-09-23T06:51:02.391Z,1.20
2022-09-23T06:53:32.243Z,2.00
2022-09-23T06:56:00.598Z,1.70
2022-09-23T06:58:28.840Z,2.65
2022-09-23T07:01:01.685Z,1.38
2022-09-23T07:03:29.661Z,1.30
2022-09-23T07:05:57.896Z,1.63
2022-09-23T07:08:27.139Z,1.00
2022-09-23T07:10:56.611Z,1.40
2022-09-23T07:13:24.729Z,1.10
2022-09-23T07:15:52.791Z,1.63
2022-09-23T07:18:20.871Z,1.60
2022-09-23T07:20:48.756Z,1.67
2022-09-23T07:23:17.630Z,1.63
2022-09-23T07:25:46.782Z,1.50
2022-09-23T07:28:16.140Z,1.50
2022-09-23T07:30:56.157Z,1.15
2022-09-23T07:33:33.355Z,1.38
2022-09-23T07:36:05.075Z,1.30
2022-09-23T07:38:33.016Z,1.65
2022-09-23T07:41:05.011Z,2.10
2022-09-23T07:43:34.366Z,2.88
2022-09-23T07:46:03.390Z,1.80
2022-09-23T07:48:34.331Z,3.28
2022-09-23T07:51:06.909Z,1.75
2022-09-23T07:53:34.936Z,2.78
2022-09-23T07:56:04.598Z,1.52
2022-09-23T07:58:33.962Z,3.60
2022-09-23T08:01:06.014Z,8.75
2022-09-23T08:03:33.963Z,2.85
2022-09-23T08:06:06.651Z,3.38
2022-09-23T08:08:35.621Z,2.88
2022-09-23T08:11:04.686Z,1.60
2022-09-23T08:13:34.591Z,4.85
2022-09-23T08:16:02.998Z,4.40
2022-09-23T08:18:31.149Z,2.33
2022-09-23T08:20:59.081Z,6.65
2022-09-23T08:23:27.304Z,4.80
2022-09-23T08:25:59.686Z,2.55
2022-09-23T08:28:35.196Z,1.48
2022-09-23T08:31:04.620Z,3.08
2022-09-23T08:33:32.625Z,2.13
2022-09-23T08:36:00.983Z,2.47
2022-09-23T08:38:29.073Z,1.98
2022-09-23T08:41:02.762Z,5.60
2022-09-23T08:43:31.078Z,2.20
2022-09-23T08:46:00.993Z,1.73
2022-09-23T08:48:30.838Z,3.30
2022-09-23T08:51:02.574Z,3.30
2022-09-23T08:53:31.288Z,2.47
2022-09-23T08:55:59.985Z,2.25
2022-09-23T08:58:43.924Z,1.67
2022-09-23T09:01:15.973Z,6.95
2022-09-23T09:03:47.509Z,1.60
2022-09-23T09:06:19.102Z,4.53
2022-09-23T09:08:48.451Z,1.88
2022-09-23T09:11:16.581Z,5.28
2022-09-23T09:13:48.947Z,1.88
2022-09-23T09:16:48.348Z,4.82
2022-09-23T09:19:19.365Z,2.88
2022-09-23T09:21:47.883Z,2.63
2022-09-23T09:24:18.687Z,1.48
2022-09-23T09:26:46.569Z,3.90
2022-09-23T09:29:34.414Z,4.35
2022-09-23T09:32:03.663Z,1.85
2022-09-23T09:34:35.664Z,5.93
2022-09-23T09:37:07.188Z,3.20
2022-09-23T09:39:35.672Z,2.10
2022-09-23T09:42:03.706Z,2.17
2022-09-23T09:44:37.126Z,2.70
2022-09-23T09:47:21.071Z,1.88
2022-09-23T09:49:52.680Z,2.78
2022-09-23T09:52:22.740Z,1.63
2022-09-23T09:54:51.937Z,2.03
2022-09-23T09:57:33.570Z,2.08
2022-09-23T10:00:19.065Z,1.63
2022-09-23T10:02:47.002Z,2.33
2022-09-23T10:05:27.110Z,2.45
2022-09-23T10:07:55.281Z,1.33
2022-09-23T10:10:33.230Z,2.05
2022-09-23T10:13:02.526Z,1.33
2022-09-23T10:15:33.285Z,1.15
2022-09-23T10:18:02.069Z,1.52
2022-09-23T10:20:38.246Z,1.00
2022-09-23T10:23:09.877Z,0.90
2022-09-23T10:25:37.886Z,2.47
2022-09-23T10:28:34.125Z,1.95
2022-09-23T10:31:06.004Z,2.85
2022-09-23T10:33:33.892Z,1.42
2022-09-23T10:36:03.524Z,0.68
2022-09-23T10:38:31.415Z,1.77
2022-09-23T10:41:16.693Z,1.50
2022-09-23T10:44:05.959Z,1.40
2022-09-23T10:46:46.269Z,2.05
2022-09-23T10:50:05.020Z,1.17
2022-09-23T10:52:41.005Z,1.23
2022-09-23T10:55:18.167Z,0.82
2022-09-23T10:57:54.481Z,1.00
2022-09-23T11:00:23.557Z,1.98
2022-09-23T11:03:02.054Z,1.00
2022-09-23T11:05:36.132Z,1.20
2022-09-23T11:08:18.389Z,2.55
2022-09-23T11:10:57.501Z,5.55
2022-09-23T11:13:34.792Z,0.52
2022-09-23T11:16:07.028Z,3.03
2022-09-23T11:18:51.866Z,1.33
2022-09-23T11:21:34.672Z,4.57
2022-09-23T11:24:18.701Z,2.78
2022-09-23T11:26:52.288Z,4.63
2022-09-23T11:29:47.836Z,0.95
2022-09-23T11:32:27.633Z,4.07
2022-09-23T11:35:03.007Z,0.68
2022-09-23T11:37:33.102Z,0.98
2022-09-23T11:40:04.162Z,2.22
2022-09-23T11:42:34.239Z,1.65
2022-09-23T11:45:03.505Z,2.03
2022-09-23T11:47:39.466Z,1.17
2022-09-23T11:50:12.983Z,0.98
2022-09-23T11:52:42.639Z,0.60
2022-09-23T11:55:22.226Z,0.57
2022-09-23T11:57:52.549Z,1.23
2022-09-23T12:00:21.257Z,1.52
2022-09-23T12:03:04.015Z,0.75
2022-09-23T12:05:35.770Z,0.55
2022-09-23T12:08:07.650Z,1.05
2022-09-23T12:10:44.527Z,1.23
2022-09-23T12:13:18.069Z,0.95
2022-09-23T12:15:53.594Z,1.58
2022-09-23T12:18:44.079Z,0.63
2022-09-23T12:21:49.894Z,0.38
2022-09-23T12:24:27.906Z,2.58
2022-09-23T12:27:00.746Z,1.20
2022-09-23T12:29:29.888Z,0.70
2022-09-23T12:31:57.820Z,0.45
2022-09-23T12:34:28.955Z,0.63
2022-09-23T12:37:03.085Z,2.15
2022-09-23T12:39:31.897Z,0.70
2022-09-23T12:42:01.754Z,0.65
2022-09-23T12:44:34.553Z,0.40
2022-09-23T12:47:39.493Z,0.70
2022-09-23T12:50:44.502Z,0.63
2022-09-23T12:53:56.644Z,1.23
2022-09-23T12:56:26.497Z,0.73
2022-09-23T12:59:15.604Z,0.52
2022-09-23T13:01:43.668Z,1.00
2022-09-23T13:04:53.757Z,0.60
2022-09-23T13:07:24.909Z,0.70
2022-09-23T13:09:53.826Z,0.75
2022-09-23T13:12:24.773Z,0.63
2022-09-23T13:14:54.697Z,1.17
2022-09-23T13:17:27.332Z,1.08
2022-09-23T13:20:03.306Z,0.95
2022-09-23T13:23:04.129Z,1.02
2022-09-23T13:25:33.703Z,0.47
2022-09-23T13:28:02.526Z,0.40
2022-09-23T13:31:14.235Z,0.65
2022-09-23T13:33:44.223Z,0.45
2022-09-23T13:36:13.918Z,0.40
2022-09-23T13:38:42.186Z,0.40
2022-09-23T13:41:13.854Z,0.47
2022-09-23T13:43:42.940Z,0.50
2022-09-23T13:46:14.586Z,0.73
2022-09-23T13:48:42.743Z,0.85
2022-09-23T13:51:12.632Z,0.40
2022-09-23T13:53:40.557Z,0.40
2022-09-23T13:56:12.598Z,0.60
2022-09-23T13:58:40.519Z,0.88
2022-09-23T14:01:09.293Z,0.60
2022-09-23T14:03:39.305Z,0.75
2022-09-23T14:06:08.978Z,0.52
2022-09-23T14:08:36.978Z,0.40
2022-09-23T14:11:06.279Z,0.73
2022-09-23T14:13:42.820Z,0.63
2022-09-23T14:16:11.905Z,0.50
2022-09-23T14:18:41.749Z,2.63
2022-09-23T14:21:26.908Z,0.47
2022-09-23T14:23:54.783Z,0.57
2022-09-23T14:26:22.694Z,0.45
2022-09-23T14:28:50.618Z,2.72
2022-09-23T14:31:18.561Z,0.40
2022-09-23T14:33:47.878Z,0.77
2022-09-23T14:36:30.724Z,0.60
2022-09-23T14:39:03.732Z,9.63
2022-09-23T14:41:31.641Z,0.52
2022-09-23T14:44:00.525Z,0.90
2022-09-23T14:46:29.554Z,0.68
2022-09-23T14:49:05.603Z,1.38
2022-09-23T14:51:37.266Z,0.35
2022-09-23T14:54:32.409Z,0.50
2022-09-23T14:57:00.718Z,0.80
2022-09-23T14:59:29.955Z,1.67
2022-09-23T15:01:57.872Z,0.43
2022-09-23T15:04:35.434Z,0.75
2022-09-23T15:07:05.845Z,0.60
2022-09-23T15:09:34.628Z,1.00
2022-09-23T15:12:03.877Z,0.50
2022-09-23T15:14:39.848Z,0.70
2022-09-23T15:17:19.919Z,0.70
2022-09-23T15:19:52.611Z,0.40
2022-09-23T15:22:20.627Z,0.38
2022-09-23T15:24:48.696Z,0.80
2022-09-23T15:27:29.576Z,0.70
2022-09-23T15:30:02.831Z,0.77
2022-09-23T15:32:30.799Z,1.35
2022-09-23T15:35:00.070Z,0.43
2022-09-23T15:37:29.275Z,0.80
2022-09-23T15:39:59.694Z,1.00
2022-09-23T15:42:29.625Z,0.40
2022-09-23T15:44:59.311Z,0.88
2022-09-23T15:47:27.369Z,0.50
2022-09-23T15:49:55.255Z,0.40
2022-09-23T15:52:24.647Z,0.80
2022-09-23T15:54:53.552Z,0.55
2022-09-23T15:57:22.342Z,0.60
2022-09-23T15:59:50.278Z,0.43
2022-09-23T16:02:21.202Z,0.57
2022-09-23T16:04:50.337Z,0.45
2022-09-23T16:07:19.910Z,0.85
2022-09-23T16:09:49.206Z,0.50
2022-09-23T16:12:17.200Z,0.50
2022-09-23T16:14:45.171Z,0.30
2022-09-23T16:17:14.334Z,0.30
2022-09-23T16:19:42.310Z,0.43
2022-09-23T16:22:11.055Z,1.00
2022-09-23T16:24:39.072Z,0.45
2022-09-23T16:27:09.409Z,0.50
2022-09-23T16:29:37.379Z,0.55
2022-09-23T16:32:05.424Z,0.60
2022-09-23T16:34:34.809Z,0.82
2022-09-23T16:37:03.803Z,1.00
2022-09-23T16:39:31.752Z,0.55
2022-09-23T16:41:59.652Z,0.52
2022-09-23T16:44:29.927Z,0.80
2022-09-23T16:46:57.841Z,0.45
2022-09-23T16:49:26.022Z,1.20
2022-09-23T16:51:53.916Z,0.93
2022-09-23T16:54:23.859Z,1.17
2022-09-23T16:56:52.237Z,0.60
2022-09-23T16:59:20.112Z,0.52
2022-09-23T17:02:07.398Z,0.82
2022-09-23T17:04:35.371Z,0.80
2022-09-23T17:07:03.298Z,0.70
2022-09-23T17:09:31.297Z,0.70
2022-09-23T17:12:01.126Z,0.88
2022-09-23T17:14:31.105Z,0.68
2022-09-23T17:17:00.631Z,1.73
2022-09-23T17:19:28.732Z,0.95
2022-09-23T17:21:56.690Z,0.93
2022-09-23T17:24:24.867Z,1.02
2022-09-23T17:26:53.472Z,0.93
2022-09-23T17:29:21.545Z,1.00
2022-09-23T17:31:49.708Z,1.20
2022-09-23T17:34:19.728Z,1.42
2022-09-23T17:36:47.650Z,1.20
2022-09-23T17:39:16.607Z,1.58
2022-09-23T17:41:45.454Z,1.27
2022-09-23T17:44:15.488Z,2.05
2022-09-23T17:46:43.666Z,2.00
2022-09-23T17:49:12.230Z,1.70
2022-09-23T17:51:42.221Z,2.08
2022-09-23T17:54:11.117Z,2.80
2022-09-23T17:56:39.076Z,1.63
2022-09-23T17:59:07.032Z,2.08
2022-09-23T18:01:35.588Z,2.03
2022-09-23T18:04:05.635Z,2.17
2022-09-23T18:06:35.515Z,1.83
2022-09-23T18:09:05.925Z,1.85
2022-09-23T18:11:34.807Z,2.90
2022-09-23T18:14:03.478Z,2.55
2022-09-23T18:16:32.450Z,2.70
2022-09-23T18:19:01.270Z,3.08
2022-09-23T18:21:30.101Z,3.10
2022-09-23T18:24:15.669Z,3.38
2022-09-23T18:26:49.781Z,3.33
2022-09-23T18:29:19.618Z,2.70
2022-09-23T18:31:48.059Z,3.42
2022-09-23T18:34:17.133Z,2.92
2022-09-23T18:36:48.177Z,2.90
2022-09-23T18:39:16.140Z,3.47
2022-09-23T18:41:44.035Z,2.92
2022-09-23T18:44:14.442Z,3.10
2022-09-23T18:46:42.819Z,3.35
2022-09-23T18:49:28.340Z,3.50
2022-09-23T18:51:59.791Z,2.92
2022-09-23T18:54:29.460Z,3.38
2022-09-23T18:56:59.130Z,4.13
2022-09-23T18:59:29.086Z,3.08
2022-09-23T19:01:57.387Z,3.72
2022-09-23T19:04:26.145Z,4.05
2022-09-23T19:06:56.282Z,3.88
2022-09-23T19:09:24.441Z,3.60
2022-09-23T19:11:52.559Z,3.78
2022-09-23T19:14:20.616Z,4.45
2022-09-23T19:16:50.639Z,4.78
2022-09-23T19:19:18.554Z,5.25
2022-09-23T19:21:46.522Z,4.35
2022-09-23T19:24:15.963Z,4.07
2022-09-23T19:26:44.393Z,5.55
2022-09-23T19:29:14.520Z,4.72
2022-09-23T19:31:42.517Z,7.03
2022-09-23T19:34:14.639Z,7.32
2022-09-23T19:36:43.411Z,4.60
2022-09-23T19:39:15.847Z,4.45
2022-09-23T19:41:43.809Z,5.35
2022-09-23T19:44:11.854Z,5.82
2022-09-23T19:46:42.877Z,4.35
2022-09-23T19:49:11.117Z,5.18
2022-09-23T19:51:40.726Z,6.25
2022-09-23T19:54:09.166Z,4.93
2022-09-23T19:56:38.606Z,5.40
2022-09-23T19:59:09.186Z,5.18
2022-09-23T20:01:37.554Z,6.00
2022-09-23T20:04:05.675Z,6.43
2022-09-23T20:06:34.292Z,5.95
2022-09-23T20:09:03.657Z,6.55
2022-09-23T20:11:32.482Z,7.80
2022-09-23T20:14:02.238Z,6.18
2022-09-23T20:16:32.092Z,5.97
2022-09-23T20:19:00.761Z,7.03
2022-09-23T20:21:29.379Z,7.90
2022-09-23T20:23:57.475Z,6.60
2022-09-23T20:26:44.304Z,7.25
2022-09-23T20:29:12.329Z,6.47
2022-09-23T20:31:40.445Z,7.57
2022-09-23T20:34:10.774Z,6.45
2022-09-23T20:36:39.543Z,8.00
2022-09-23T20:39:07.554Z,6.90
2022-09-23T20:41:37.957Z,7.22
2022-09-23T20:44:07.532Z,6.43
2022-09-23T20:46:35.944Z,6.35
2022-09-23T20:49:04.304Z,6.82
2022-09-23T20:51:33.270Z,7.60
2022-09-23T20:54:01.719Z,8.45
2022-09-23T20:56:29.690Z,8.02
2022-09-23T20:59:01.757Z,7.35
2022-09-23T21:01:29.795Z,7.00
2022-09-23T21:03:57.751Z,7.10
2022-09-23T21:06:26.338Z,6.78
2022-09-23T21:08:56.294Z,6.95
2022-09-23T21:11:26.395Z,7.30
2022-09-23T21:13:54.716Z,7.18
2022-09-23T21:16:24.643Z,6.97
2022-09-23T21:18:52.635Z,7.80
2022-09-23T21:21:22.250Z,7.53
2022-09-23T21:23:50.350Z,7.00
2022-09-23T21:26:19.807Z,7.47
2022-09-23T21:28:48.417Z,7.32
2022-09-23T21:31:23.001Z,8.45
2022-09-23T21:33:54.892Z,7.13
2022-09-23T21:36:24.833Z,7.28
2022-09-23T21:38:53.032Z,7.35
2022-09-23T21:41:21.020Z,8.35
2022-09-23T21:43:49.586Z,7.57
2022-09-23T21:46:20.190Z,7.68
2022-09-23T21:48:49.892Z,7.18
2022-09-23T21:51:20.806Z,9.50
2022-09-23T21:53:49.086Z,8.45
2022-09-23T21:56:21.013Z,8.15
2022-09-23T21:58:49.303Z,7.18
2022-09-23T22:01:18.817Z,8.07
2022-09-23T22:03:50.901Z,7.53
2022-09-23T22:06:22.619Z,8.85
2022-09-23T22:08:51.413Z,8.48
2022-09-23T22:11:37.451Z,8.52
2022-09-23T22:14:07.218Z,8.40
2022-09-23T22:16:35.995Z,8.15
2022-09-23T22:19:06.930Z,7.93
2022-09-23T22:21:40.121Z,10.43
2022-09-23T22:24:09.187Z,7.45
2022-09-23T22:26:37.910Z,7.22
2022-09-23T22:29:23.350Z,7.43
2022-09-23T22:32:08.642Z,8.07
2022-09-23T22:34:49.603Z,7.43
2022-09-23T22:37:20.992Z,7.65
2022-09-23T22:39:48.928Z,7.20
2022-09-23T22:42:16.999Z,6.53
2022-09-23T22:44:44.932Z,6.78
2022-09-23T22:47:12.832Z,7.07
2022-09-23T22:49:40.815Z,8.55
2022-09-23T22:52:09.211Z,6.28
2022-09-23T22:54:38.623Z,7.10
2022-09-23T23:00:03.449Z,7.63
2022-09-23T23:02:31.521Z,6.50
2022-09-23T23:05:00.931Z,6.93
2022-09-23T23:07:28.942Z,6.28
2022-09-23T23:09:58.208Z,6.22
2022-09-23T23:12:26.294Z,6.75
2022-09-23T23:14:54.854Z,5.38
2022-09-23T23:17:22.761Z,6.53
2022-09-23T23:19:52.648Z,5.97
2022-09-23T23:22:20.562Z,5.80
2022-09-23T23:24:48.490Z,5.47
2022-09-23T23:27:17.756Z,5.90
2022-09-23T23:29:45.760Z,5.72
2022-09-23T23:32:13.892Z,5.68
2022-09-23T23:34:41.848Z,5.13
2022-09-23T23:37:09.834Z,6.82
2022-09-23T23:39:37.712Z,5.53
2022-09-23T23:42:06.010Z,5.70
2022-09-23T23:44:35.328Z,6.43
2022-09-23T23:47:03.402Z,6.93
2022-09-23T23:49:31.425Z,7.72
2022-09-23T23:51:59.360Z,6.63
2022-09-23T23:54:27.319Z,5.30
2022-09-23T23:56:55.186Z,6.55
2022-09-23T23:59:23.129Z,5.80
